Time;durP1;ratioP1;P1;durP2;ratioP2;P2;SDS_P1;SDS_P2;PMS_P1;PMS_P2;Temp;Humidity;BMP_temperature;BMP_pressure;BME280_temperature;BME280_humidity;BME280_pressure;Samples;Min_cycle;Max_cycle;Signal;HPM_P1;HPM_P2
2022/04/14 00:01:03;;;;;;;27.73;14.15;;;10.30;99.90;;;;;;5064600;28;20045;-73
2022/04/14 00:03:29;;;;;;;34.30;14.38;;;10.30;99.90;;;;;;5048161;28;20052;-72
2022/04/14 00:05:54;;;;;;;30.08;14.57;;;10.30;99.90;;;;;;5048381;28;20044;-73
2022/04/14 00:08:20;;;;;;;34.20;14.68;;;10.20;99.90;;;;;;5048947;28;20040;-72
2022/04/14 00:10:45;;;;;;;35.00;15.10;;;10.20;99.90;;;;;;5048357;28;20043;-73
2022/04/14 00:13:11;;;;;;;32.55;14.60;;;10.10;99.90;;;;;;5047536;28;20324;-72
2022/04/14 00:15:37;;;;;;;32.90;14.77;;;10.10;99.90;;;;;;5049182;28;20119;-73
2022/04/14 00:18:02;;;;;;;34.20;15.05;;;10.10;99.90;;;;;;5048772;28;20126;-73
2022/04/14 00:20:28;;;;;;;33.28;14.82;;;10.10;99.90;;;;;;5047816;28;20048;-73
2022/04/14 00:22:53;;;;;;;30.70;15.55;;;10.10;99.90;;;;;;5049071;28;20037;-73
2022/04/14 00:25:19;;;;;;;35.08;16.08;;;10.10;99.90;;;;;;5018303;28;20416;-73
2022/04/14 00:27:45;;;;;;;34.97;15.90;;;10.10;99.90;;;;;;5048283;28;20072;-73
2022/04/14 00:30:12;;;;;;;40.58;15.13;;;10.10;99.90;;;;;;5048244;28;20128;-73
2022/04/14 00:32:38;;;;;;;30.63;15.63;;;10.00;99.90;;;;;;5038910;28;20047;-73
2022/04/14 00:35:04;;;;;;;35.72;16.33;;;10.00;99.90;;;;;;5057431;28;20040;-73
2022/04/14 00:37:29;;;;;;;39.83;16.65;;;10.00;99.90;;;;;;5063178;28;20041;-73
2022/04/14 00:39:55;;;;;;;36.70;16.02;;;9.90;99.90;;;;;;5047681;28;20043;-73
2022/04/14 00:42:20;;;;;;;35.20;16.05;;;9.90;99.90;;;;;;5046898;28;20037;-73
2022/04/14 00:44:46;;;;;;;33.35;17.17;;;9.90;99.90;;;;;;5047854;28;20037;-73
2022/04/14 00:47:12;;;;;;;36.38;18.02;;;9.80;99.90;;;;;;5048038;28;20048;-73
2022/04/14 00:49:38;;;;;;;40.38;17.48;;;9.70;99.90;;;;;;5047935;28;20045;-73
2022/04/14 00:52:04;;;;;;;40.03;19.35;;;9.80;99.90;;;;;;5047466;28;20073;-73
2022/04/14 00:54:31;;;;;;;47.28;21.00;;;9.70;99.90;;;;;;5048075;28;20037;-73
2022/04/14 00:57:01;;;;;;;46.25;19.70;;;9.70;99.90;;;;;;5032279;28;20391;-73
2022/04/14 00:59:28;;;;;;;43.30;19.52;;;9.70;99.90;;;;;;5048459;28;20048;-74
2022/04/14 01:01:54;;;;;;;42.38;20.02;;;9.70;99.90;;;;;;5046638;28;20064;-74
2022/04/14 01:04:20;;;;;;;47.95;19.83;;;9.60;99.90;;;;;;5045888;28;20084;-73
2022/04/14 01:06:46;;;;;;;41.80;19.38;;;9.60;99.90;;;;;;5049079;28;20087;-73
2022/04/14 01:09:21;;;;;;;39.42;19.92;;;9.60;99.90;;;;;;5050474;28;20037;-73
2022/04/14 01:11:51;;;;;;;51.75;21.23;;;9.60;99.90;;;;;;5048201;28;20040;-74
2022/04/14 01:14:31;;;;;;;52.15;22.05;;;9.60;99.90;;;;;;5044548;28;20381;-73
2022/04/14 01:16:59;;;;;;;52.67;22.58;;;9.50;99.90;;;;;;5048161;28;20479;-73
2022/04/14 01:19:25;;;;;;;53.42;23.50;;;9.50;99.90;;;;;;5045102;28;20041;-73
2022/04/14 01:22:01;;;;;;;55.42;25.30;;;9.50;99.90;;;;;;5049630;28;20037;-74
2022/04/14 01:24:27;;;;;;;51.97;23.00;;;9.50;99.90;;;;;;5048201;28;20034;-74
2022/04/14 01:26:54;;;;;;;52.97;24.38;;;9.50;99.90;;;;;;5051450;28;20037;-74
2022/04/14 01:29:24;;;;;;;56.13;25.08;;;9.50;99.90;;;;;;5049210;28;20059;-73
2022/04/14 01:31:51;;;;;;;67.68;27.15;;;9.50;99.90;;;;;;5043535;28;20052;-75
2022/04/14 01:34:17;;;;;;;65.20;27.83;;;9.50;99.90;;;;;;5043658;28;20120;-74
2022/04/14 01:36:42;;;;;;;64.43;27.55;;;9.60;99.90;;;;;;5048793;28;20128;-74
2022/04/14 01:39:10;;;;;;;75.43;30.58;;;9.70;99.90;;;;;;5050329;28;20032;-73
2022/04/14 01:41:37;;;;;;;70.45;30.33;;;9.70;99.90;;;;;;5050708;28;20514;-74
2022/04/14 01:44:02;;;;;;;73.93;31.38;;;9.60;99.90;;;;;;5051826;28;20468;-74
2022/04/14 01:46:28;;;;;;;86.47;35.33;;;9.70;99.90;;;;;;5051335;28;20055;-74
2022/04/14 01:48:54;;;;;;;70.22;32.10;;;9.70;99.90;;;;;;5031871;28;20037;-74
2022/04/14 01:51:19;;;;;;;87.75;34.63;;;9.70;99.90;;;;;;5053467;28;20412;-74
2022/04/14 01:53:45;;;;;;;80.38;33.75;;;9.70;99.90;;;;;;5049740;28;20037;-75
2022/04/14 01:56:11;;;;;;;75.20;32.42;;;9.80;99.90;;;;;;5043292;28;20611;-74
2022/04/14 01:58:36;;;;;;;72.97;32.88;;;9.90;99.90;;;;;;5061437;28;20052;-74
2022/04/14 02:01:02;;;;;;;88.35;34.33;;;9.90;99.90;;;;;;5052432;28;20036;-75
2022/04/14 02:03:27;;;;;;;70.25;30.83;;;9.80;99.90;;;;;;5050756;28;20041;-75
2022/04/14 02:05:53;;;;;;;64.63;27.90;;;9.80;99.90;;;;;;5059002;28;20045;-75
2022/04/14 02:08:18;;;;;;;53.63;26.23;;;9.60;99.90;;;;;;5066980;28;20322;-76
2022/04/14 02:10:44;;;;;;;62.65;26.60;;;9.50;99.90;;;;;;5060530;28;20040;-76
2022/04/14 02:13:09;;;;;;;70.30;30.40;;;9.40;99.90;;;;;;5053660;28;20072;-75
2022/04/14 02:15:35;;;;;;;75.38;33.40;;;9.20;99.90;;;;;;5053885;28;20044;-75
2022/04/14 02:18:00;;;;;;;75.50;33.03;;;9.30;99.90;;;;;;5055772;28;20480;-75
2022/04/14 02:20:26;;;;;;;84.65;34.70;;;9.20;99.90;;;;;;5053816;28;20053;-75
2022/04/14 02:22:51;;;;;;;93.35;36.67;;;9.20;99.90;;;;;;5046620;28;20033;-75
2022/04/14 02:25:17;;;;;;;87.20;34.65;;;9.20;99.90;;;;;;5052113;28;20041;-75
2022/04/14 02:27:42;;;;;;;81.45;34.25;;;9.20;99.90;;;;;;5054999;28;20515;-75
2022/04/14 02:30:08;;;;;;;92.65;39.08;;;9.30;99.90;;;;;;5053134;28;20571;-75
2022/04/14 02:32:34;;;;;;;83.95;37.20;;;9.50;99.90;;;;;;5021916;28;20087;-74
2022/04/14 02:35:01;;;;;;;88.45;35.90;;;9.40;99.90;;;;;;5041856;28;20037;-74
2022/04/14 02:37:27;;;;;;;92.30;39.40;;;9.50;99.90;;;;;;5048849;28;20082;-73
2022/04/14 02:39:52;;;;;;;96.47;37.83;;;9.30;99.90;;;;;;5050015;28;20040;-72
2022/04/14 02:42:18;;;;;;;90.85;37.63;;;9.40;99.90;;;;;;5050234;28;20446;-73
2022/04/14 02:44:43;;;;;;;83.57;36.42;;;9.30;99.90;;;;;;5050950;28;20029;-74
2022/04/14 02:47:09;;;;;;;83.40;34.50;;;9.30;99.90;;;;;;5051095;28;20029;-73
2022/04/14 02:49:35;;;;;;;81.93;34.58;;;9.20;99.90;;;;;;5050505;28;20086;-74
2022/04/14 02:52:01;;;;;;;75.43;34.60;;;9.10;99.90;;;;;;5040483;28;20038;-74
2022/04/14 02:54:26;;;;;;;81.57;32.85;;;9.10;99.90;;;;;;5049103;28;20033;-75
2022/04/14 02:56:52;;;;;;;78.32;33.50;;;9.00;99.90;;;;;;5065493;28;20041;-75
2022/04/14 02:59:17;;;;;;;87.38;37.88;;;8.90;99.90;;;;;;5027123;28;20043;-75
2022/04/14 03:01:43;;;;;;;89.63;36.03;;;9.00;99.90;;;;;;5044522;28;20040;-74
2022/04/14 03:04:09;;;;;;;85.07;34.55;;;8.90;99.90;;;;;;5048163;28;20072;-75
2022/04/14 03:06:34;;;;;;;69.57;31.80;;;8.90;99.90;;;;;;5050411;28;20622;-75
2022/04/14 03:09:00;;;;;;;54.30;26.23;;;8.90;99.90;;;;;;5050904;28;20043;-75
2022/04/14 03:11:25;;;;;;;50.30;25.17;;;8.70;99.90;;;;;;5052704;28;20077;-76
2022/04/14 03:13:51;;;;;;;77.63;31.65;;;8.70;99.90;;;;;;5053655;28;20037;-76
2022/04/14 03:16:16;;;;;;;56.65;27.08;;;8.70;99.90;;;;;;5049766;28;20041;-75
2022/04/14 03:18:42;;;;;;;52.83;25.50;;;8.60;99.90;;;;;;5050547;28;20127;-75
2022/04/14 03:21:07;;;;;;;44.85;22.17;;;8.60;99.90;;;;;;5057756;28;20041;-75
2022/04/14 03:23:33;;;;;;;39.65;20.75;;;8.70;99.90;;;;;;5032481;28;20041;-75
2022/04/14 03:25:58;;;;;;;35.38;20.20;;;8.60;99.90;;;;;;5048060;28;20106;-75
2022/04/14 03:28:24;;;;;;;34.90;18.58;;;8.40;99.90;;;;;;5037411;28;20060;-75
2022/04/14 03:30:49;;;;;;;43.53;23.08;;;8.60;99.90;;;;;;5064747;28;20098;-74
2022/04/14 03:33:15;;;;;;;50.53;24.33;;;8.40;99.90;;;;;;5049301;28;20079;-75
2022/04/14 03:35:40;;;;;;;48.70;24.83;;;8.50;99.90;;;;;;5051089;28;20040;-75
2022/04/14 03:38:06;;;;;;;44.45;23.15;;;8.50;99.90;;;;;;5055458;28;20111;-75
2022/04/14 03:40:33;;;;;;;51.38;24.25;;;8.30;99.90;;;;;;5051194;28;20048;-75
2022/04/14 03:42:58;;;;;;;43.17;20.75;;;8.30;99.90;;;;;;5054651;28;20055;-76
2022/04/14 03:45:24;;;;;;;40.58;20.23;;;8.40;99.90;;;;;;5055826;28;20059;-75
2022/04/14 03:47:49;;;;;;;38.22;19.75;;;8.20;99.90;;;;;;5057501;28;20420;-76
2022/04/14 03:50:15;;;;;;;66.95;20.17;;;8.10;99.90;;;;;;5059115;28;20063;-75
2022/04/14 03:52:40;;;;;;;46.30;21.27;;;7.90;99.90;;;;;;5059021;28;20074;-76
2022/04/14 03:55:06;;;;;;;75.65;22.50;;;7.80;99.90;;;;;;5053962;28;20062;-76
2022/04/14 03:57:32;;;;;;;54.40;23.00;;;7.70;99.90;;;;;;5047174;28;20047;-76
2022/04/14 03:59:57;;;;;;;67.63;27.75;;;7.70;99.90;;;;;;5062429;28;20037;-76
2022/04/14 04:02:23;;;;;;;58.80;25.70;;;7.50;99.90;;;;;;5055664;28;20029;-76
2022/04/14 04:04:48;;;;;;;43.97;20.10;;;7.60;99.90;;;;;;5056255;28;20087;-75
2022/04/14 04:07:14;;;;;;;33.55;16.90;;;7.50;99.90;;;;;;5055948;28;20033;-76
2022/04/14 04:09:39;;;;;;;40.30;19.38;;;7.50;99.90;;;;;;5055441;28;20025;-76
2022/04/14 04:12:06;;;;;;;40.00;18.75;;;7.40;99.90;;;;;;5054016;28;20124;-74
2022/04/14 04:14:31;;;;;;;36.92;18.63;;;7.40;99.90;;;;;;5053435;28;20492;-76
2022/04/14 04:16:57;;;;;;;30.02;15.80;;;7.30;99.90;;;;;;5055552;28;20032;-76
2022/04/14 04:19:22;;;;;;;28.33;15.93;;;7.30;99.90;;;;;;5041472;28;20172;-76
2022/04/14 04:21:48;;;;;;;33.50;15.73;;;7.40;99.90;;;;;;5052502;28;20415;-75
2022/04/14 04:24:13;;;;;;;22.40;14.05;;;7.40;99.90;;;;;;5052059;28;20044;-76
2022/04/14 04:26:39;;;;;;;24.77;13.43;;;7.20;99.90;;;;;;5051238;28;20046;-75
2022/04/14 04:29:04;;;;;;;19.60;12.65;;;7.20;99.90;;;;;;5051970;28;20044;-73
2022/04/14 04:31:30;;;;;;;18.23;12.70;;;7.20;99.90;;;;;;5047908;28;20395;-75
2022/04/14 04:33:55;;;;;;;19.58;12.57;;;7.30;99.90;;;;;;5053785;28;20037;-75
2022/04/14 04:36:21;;;;;;;60.65;15.05;;;7.20;99.90;;;;;;5047973;28;20041;-76
2022/04/14 04:38:47;;;;;;;20.65;13.38;;;7.20;99.90;;;;;;5054085;28;20068;-76
2022/04/14 04:41:13;;;;;;;18.05;11.85;;;7.10;99.90;;;;;;5038110;28;20143;-75
2022/04/14 04:43:38;;;;;;;24.20;13.95;;;7.10;99.90;;;;;;5053764;28;20033;-77
2022/04/14 04:46:04;;;;;;;26.08;15.15;;;6.90;99.90;;;;;;5053169;28;20041;-76
2022/04/14 04:48:29;;;;;;;22.98;13.57;;;7.00;99.90;;;;;;5050421;28;20040;-76
2022/04/14 04:50:56;;;;;;;21.85;13.70;;;7.00;99.90;;;;;;5051613;28;20539;-76
2022/04/14 04:53:21;;;;;;;26.40;14.98;;;6.90;99.90;;;;;;5060379;28;20082;-77
2022/04/14 04:55:47;;;;;;;20.70;13.55;;;6.90;99.90;;;;;;5066269;28;20041;-77
2022/04/14 04:58:12;;;;;;;26.95;14.05;;;6.90;99.90;;;;;;5058567;28;20041;-76
2022/04/14 05:00:38;;;;;;;23.13;14.25;;;6.90;99.90;;;;;;5054485;28;20442;-75
2022/04/14 05:03:09;;;;;;;24.63;13.52;;;6.80;99.90;;;;;;5056309;28;20382;-76
2022/04/14 05:05:35;;;;;;;21.05;12.93;;;6.80;99.90;;;;;;5038876;28;20037;-76
2022/04/14 05:08:01;;;;;;;21.85;13.45;;;6.80;99.90;;;;;;5060933;28;20100;-76
2022/04/14 05:10:26;;;;;;;28.17;15.63;;;6.90;99.90;;;;;;5062441;28;20041;-77
2022/04/14 05:12:52;;;;;;;37.38;16.77;;;6.90;99.90;;;;;;5062269;28;20381;-78
2022/04/14 05:15:17;;;;;;;29.50;16.02;;;6.90;99.90;;;;;;5067614;28;20033;-77
2022/04/14 05:17:43;;;;;;;30.75;15.25;;;6.80;99.90;;;;;;5063114;28;20041;-77
2022/04/14 05:20:09;;;;;;;204.55;21.23;;;6.70;99.90;;;;;;5042705;28;20083;-77
2022/04/14 05:22:35;;;;;;;574.35;31.65;;;6.70;99.90;;;;;;5054685;28;20040;-76
2022/04/14 05:25:02;;;;;;;60.75;22.35;;;6.60;99.90;;;;;;5036687;28;20037;-76
2022/04/14 05:27:28;;;;;;;30.45;14.52;;;6.70;99.90;;;;;;5056776;28;20033;-78
2022/04/14 05:29:53;;;;;;;21.00;12.98;;;6.70;99.90;;;;;;5055558;28;20449;-78
2022/04/14 05:32:19;;;;;;;449.70;38.30;;;6.60;99.90;;;;;;5055208;28;20546;-78
2022/04/14 05:34:44;;;;;;;94.78;15.73;;;6.60;99.90;;;;;;5060748;28;20127;-78
2022/04/14 05:37:10;;;;;;;30.48;16.50;;;6.70;99.90;;;;;;5060841;28;20025;-78
2022/04/14 05:39:35;;;;;;;39.30;18.55;;;6.70;99.90;;;;;;5060374;28;20107;-78
2022/04/14 05:42:01;;;;;;;37.38;16.90;;;6.70;99.90;;;;;;5061790;28;20059;-78
2022/04/14 05:44:26;;;;;;;29.10;16.77;;;6.80;99.90;;;;;;5044682;28;20029;-78
2022/04/14 05:46:52;;;;;;;31.88;17.27;;;6.90;99.90;;;;;;5040806;28;20041;-79
2022/04/14 05:49:18;;;;;;;33.53;18.75;;;6.90;99.90;;;;;;5047148;28;20084;-78
2022/04/14 05:51:44;;;;;;;44.67;21.00;;;6.90;99.90;;;;;;5079466;28;20053;-79
2022/04/14 05:54:09;;;;;;;152.20;24.40;;;6.90;99.90;;;;;;5057236;28;20167;-80
2022/04/14 05:56:35;;;;;;;46.63;22.60;;;7.10;99.90;;;;;;5071207;28;20046;-78
2022/04/14 05:59:00;;;;;;;52.47;26.60;;;7.10;99.90;;;;;;5065382;28;20034;-78
2022/04/14 06:01:26;;;;;;;68.55;31.88;;;7.30;99.90;;;;;;5065554;28;20037;-78
2022/04/14 06:03:51;;;;;;;77.60;34.45;;;7.30;99.90;;;;;;5067786;28;20041;-78
2022/04/14 06:06:17;;;;;;;68.80;31.08;;;7.60;99.90;;;;;;5067185;28;20543;-77
2022/04/14 06:08:45;;;;;;;61.83;30.40;;;7.70;99.90;;;;;;5070520;28;20037;-78
2022/04/14 06:11:11;;;;;;;105.97;42.65;;;7.70;99.90;;;;;;5073681;28;20044;-78
2022/04/14 06:13:36;;;;;;;73.80;33.55;;;7.80;99.90;;;;;;5068860;28;20048;-77
2022/04/14 06:16:04;;;;;;;60.95;29.80;;;8.10;99.90;;;;;;5063835;28;20064;-77
2022/04/14 06:18:29;;;;;;;62.70;29.80;;;8.00;99.90;;;;;;5071306;28;20041;-77
2022/04/14 06:20:55;;;;;;;99.97;41.95;;;8.20;99.90;;;;;;5068720;28;20478;-77
2022/04/14 06:23:21;;;;;;;127.38;46.95;;;8.30;99.90;;;;;;5053721;28;20116;-77
2022/04/14 06:25:50;;;;;;;115.57;43.03;;;8.50;99.90;;;;;;5063679;28;20037;-77
2022/04/14 06:28:17;;;;;;;126.45;45.40;;;8.50;99.90;;;;;;5060898;28;20065;-77
2022/04/14 06:30:43;;;;;;;149.48;52.70;;;8.70;99.90;;;;;;5053973;28;20132;-77
2022/04/14 06:33:09;;;;;;;181.07;60.63;;;8.90;99.90;;;;;;5053433;28;20483;-75
2022/04/14 06:35:34;;;;;;;189.07;63.95;;;9.20;99.90;;;;;;5050093;28;20051;-74
2022/04/14 06:38:00;;;;;;;215.18;70.55;;;9.40;99.90;;;;;;5058169;28;20032;-74
2022/04/14 06:40:26;;;;;;;226.63;79.05;;;9.60;99.90;;;;;;5049413;28;20056;-75
2022/04/14 06:42:51;;;;;;;228.05;80.82;;;9.50;99.90;;;;;;5049956;28;20400;-75
2022/04/14 06:45:17;;;;;;;245.20;82.57;;;9.60;99.90;;;;;;5049664;28;20037;-71
2022/04/14 06:47:43;;;;;;;248.35;89.82;;;9.80;99.90;;;;;;5057553;28;20242;-74
2022/04/14 06:50:09;;;;;;;241.13;84.80;;;10.10;99.90;;;;;;5060960;28;20041;-75
2022/04/14 06:52:36;;;;;;;223.18;77.85;;;10.20;99.90;;;;;;5050029;28;20045;-74
2022/04/14 06:55:01;;;;;;;216.13;74.65;;;10.20;99.90;;;;;;5035236;28;20048;-75
2022/04/14 06:57:27;;;;;;;194.50;65.50;;;10.30;99.90;;;;;;5068026;28;20041;-73
2022/04/14 06:59:52;;;;;;;212.50;74.05;;;10.70;99.90;;;;;;5062873;28;20056;-72
2022/04/14 07:02:18;;;;;;;239.73;88.65;;;10.70;99.90;;;;;;5051216;28;20044;-73
2022/04/14 07:04:43;;;;;;;226.68;83.72;;;10.70;99.90;;;;;;5051706;28;20495;-73
2022/04/14 07:07:10;;;;;;;217.43;79.68;;;10.90;99.90;;;;;;5051410;28;20120;-74
2022/04/14 07:09:37;;;;;;;199.52;69.13;;;11.00;99.90;;;;;;5051049;28;20041;-73
2022/04/14 07:12:03;;;;;;;159.82;57.70;;;11.00;99.90;;;;;;5052012;28;20128;-76
2022/04/14 07:14:30;;;;;;;166.15;61.88;;;11.10;99.90;;;;;;5035573;28;20037;-75
2022/04/14 07:16:59;;;;;;;161.10;62.45;;;11.30;99.90;;;;;;5053022;28;20045;-76
2022/04/14 07:19:26;;;;;;;172.18;63.95;;;11.40;99.90;;;;;;5055986;28;20035;-73
2022/04/14 07:21:52;;;;;;;151.63;59.00;;;11.50;99.90;;;;;;5054740;28;20037;-74
2022/04/14 07:24:17;;;;;;;156.73;57.50;;;11.40;99.90;;;;;;5052030;28;20048;-76
2022/04/14 07:26:44;;;;;;;155.80;59.92;;;11.60;99.90;;;;;;5054735;28;20499;-74
2022/04/14 07:29:10;;;;;;;146.27;55.70;;;11.50;99.90;;;;;;5054872;28;20129;-75
2022/04/14 07:31:36;;;;;;;146.20;55.83;;;11.70;99.90;;;;;;5068350;28;20044;-75
2022/04/14 07:34:02;;;;;;;149.50;55.78;;;11.70;99.90;;;;;;5052379;28;20048;-75
2022/04/14 07:36:28;;;;;;;136.00;52.95;;;11.70;99.90;;;;;;5049991;28;20423;-76
2022/04/14 07:38:54;;;;;;;128.15;48.25;;;11.90;99.90;;;;;;5066121;28;20048;-76
2022/04/14 07:41:19;;;;;;;141.38;52.97;;;12.00;99.90;;;;;;5056409;28;20028;-76
2022/04/14 07:43:45;;;;;;;131.82;52.10;;;12.10;99.90;;;;;;5067934;28;20033;-75
2022/04/14 07:46:11;;;;;;;130.32;51.42;;;12.20;99.90;;;;;;5073889;28;20085;-77
2022/04/14 07:48:36;;;;;;;130.20;52.55;;;12.30;99.90;;;;;;5073304;28;20395;-76
2022/04/14 07:51:03;;;;;;;131.88;50.85;;;12.30;99.90;;;;;;5068881;28;20399;-76
2022/04/14 07:53:29;;;;;;;156.60;64.88;;;12.40;99.90;;;;;;5055355;28;20052;-74
2022/04/14 07:55:55;;;;;;;160.77;67.25;;;12.60;99.90;;;;;;5057346;28;20098;-76
2022/04/14 07:58:21;;;;;;;177.45;75.45;;;12.60;99.90;;;;;;5052175;28;20037;-74
2022/04/14 08:00:47;;;;;;;184.20;83.68;;;12.70;99.90;;;;;;5051185;28;20116;-75
2022/04/14 08:03:13;;;;;;;177.38;80.00;;;12.80;99.90;;;;;;5055634;28;20041;-73
2022/04/14 08:05:41;;;;;;;184.73;80.68;;;12.80;99.90;;;;;;5049559;28;20066;-76
2022/04/14 08:08:13;;;;;;;194.00;86.20;;;13.00;99.90;;;;;;5035419;28;20098;-74
2022/04/14 08:10:40;;;;;;;150.48;72.03;;;13.10;99.90;;;;;;5066903;28;20047;-72
2022/04/14 08:13:06;;;;;;;144.23;66.65;;;13.00;99.90;;;;;;5044333;28;20102;-76
2022/04/14 08:15:32;;;;;;;162.55;72.85;;;13.10;99.90;;;;;;5073089;28;20127;-73
2022/04/14 08:17:58;;;;;;;158.85;72.75;;;13.20;99.90;;;;;;5063507;28;20479;-71
2022/04/14 08:20:24;;;;;;;148.75;70.43;;;13.40;99.90;;;;;;5048816;28;20505;-75
2022/04/14 08:22:55;;;;;;;149.55;67.82;;;13.50;99.90;;;;;;5055288;28;20129;-78
2022/04/14 08:25:28;;;;;;;173.50;85.25;;;13.60;99.90;;;;;;5061514;28;20445;-74
2022/04/14 08:27:55;;;;;;;183.40;87.53;;;13.50;99.90;;;;;;5049834;28;20037;-72
2022/04/14 08:30:23;;;;;;;163.38;79.57;;;13.60;99.90;;;;;;5032336;28;20060;-71
2022/04/14 08:32:50;;;;;;;142.80;65.82;;;13.70;99.90;;;;;;5049975;28;20518;-72
2022/04/14 08:35:18;;;;;;;106.30;50.33;;;13.70;99.90;;;;;;5039078;28;20042;-72
2022/04/14 08:37:44;;;;;;;121.93;56.10;;;13.80;99.90;;;;;;5028182;28;20049;-71
2022/04/14 08:40:15;;;;;;;124.90;57.10;;;13.90;99.90;;;;;;5024960;28;20055;-74
2022/04/14 08:42:45;;;;;;;96.37;48.10;;;14.00;99.90;;;;;;5049691;28;20167;-71
2022/04/14 08:45:13;;;;;;;80.70;40.65;;;14.00;99.90;;;;;;5050017;28;20049;-74
2022/04/14 08:47:40;;;;;;;80.03;36.53;;;14.00;99.90;;;;;;5032131;28;20051;-70
2022/04/14 08:50:08;;;;;;;81.63;35.67;;;14.20;99.90;;;;;;5048913;28;20044;-72
2022/04/14 08:52:36;;;;;;;88.93;37.80;;;14.20;99.90;;;;;;5048157;28;20388;-70
2022/04/14 08:55:06;;;;;;;86.93;39.10;;;14.30;99.90;;;;;;5049542;28;20507;-69
2022/04/14 08:57:33;;;;;;;93.78;40.53;;;14.40;99.90;;;;;;5044520;28;20153;-69
2022/04/14 09:00:00;;;;;;;91.25;39.97;;;14.50;99.90;;;;;;5041615;28;20040;-71
2022/04/14 09:02:27;;;;;;;90.68;40.63;;;14.50;99.90;;;;;;5048895;28;20047;-71
2022/04/14 09:04:55;;;;;;;88.68;39.28;;;14.50;99.90;;;;;;5049654;28;20144;-74
2022/04/14 09:07:21;;;;;;;80.82;37.50;;;14.70;99.90;;;;;;5048541;28;20029;-75
2022/04/14 09:09:47;;;;;;;81.68;37.08;;;14.80;99.90;;;;;;5047629;28;20037;-79
2022/04/14 09:12:13;;;;;;;87.13;40.80;;;14.90;99.90;;;;;;5038707;28;20033;-73
2022/04/14 09:14:39;;;;;;;76.80;34.28;;;15.00;99.90;;;;;;5050093;28;20039;-77
2022/04/14 09:17:06;;;;;;;83.75;35.88;;;15.10;99.90;;;;;;5049747;28;20045;-77
2022/04/14 09:19:34;;;;;;;71.90;33.45;;;15.20;99.90;;;;;;5050204;28;20040;-75
2022/04/14 09:22:08;;;;;;;82.30;34.20;;;15.20;99.90;;;;;;5051902;28;20032;-78
2022/04/14 09:24:51;;;;;;;78.15;35.97;;;15.20;99.90;;;;;;5052838;28;20037;-73
2022/04/14 09:27:26;;;;;;;76.10;34.58;;;15.40;99.90;;;;;;5050417;28;20214;-73
2022/04/14 09:29:53;;;;;;;75.15;30.80;;;15.50;99.90;;;;;;5050551;28;20041;-75
2022/04/14 09:32:32;;;;;;;70.13;32.00;;;15.70;99.90;;;;;;5059204;28;20487;-75
2022/04/14 09:35:00;;;;;;;58.90;27.63;;;15.60;99.90;;;;;;5052325;28;20151;-76
2022/04/14 09:37:26;;;;;;;58.72;26.73;;;15.70;99.90;;;;;;5061093;28;20055;-75
2022/04/14 09:39:55;;;;;;;58.10;27.92;;;15.80;99.90;;;;;;5048381;28;20494;-77
2022/04/14 09:42:22;;;;;;;50.58;23.67;;;15.80;99.90;;;;;;5056951;28;20033;-79
2022/04/14 09:44:48;;;;;;;54.15;25.67;;;15.70;99.90;;;;;;5052559;28;20059;-76
2022/04/14 09:47:38;;;;;;;53.13;25.17;;;15.80;99.90;;;;;;5035885;28;20047;-74
2022/04/14 09:50:25;;;;;;;52.92;26.55;;;15.80;99.90;;;;;;5051777;28;20041;-76
2022/04/14 09:53:05;;;;;;;52.55;27.33;;;15.80;99.90;;;;;;5034541;28;20385;-69
2022/04/14 09:55:31;;;;;;;57.05;26.02;;;15.80;99.90;;;;;;5050954;28;20052;-71
2022/04/14 09:58:23;;;;;;;52.70;26.52;;;15.90;99.90;;;;;;5033093;28;20043;-72
2022/04/14 10:00:56;;;;;;;55.30;27.73;;;16.00;99.90;;;;;;5054813;28;20451;-69
2022/04/14 10:03:30;;;;;;;52.28;25.08;;;16.20;99.90;;;;;;5055900;28;20045;-77
2022/04/14 10:06:06;;;;;;;50.50;22.80;;;16.30;99.90;;;;;;5051417;28;20435;-71
2022/04/14 10:08:48;;;;;;;45.88;21.20;;;16.30;99.90;;;;;;5052685;28;20495;-74
2022/04/14 10:11:14;;;;;;;;;;;16.50;99.90;;;;;;5051916;28;20043;-76
2022/04/14 10:13:40;;;;;;;43.55;21.25;;;16.50;99.90;;;;;;5059589;28;19917;-75
2022/04/14 10:16:07;;;;;;;48.60;22.45;;;16.50;99.90;;;;;;5055175;28;20127;-74
2022/04/14 10:18:33;;;;;;;38.47;18.95;;;16.50;99.90;;;;;;5054049;28;20043;-75
2022/04/14 10:20:59;;;;;;;42.35;19.42;;;16.50;99.90;;;;;;5051775;28;20041;-75
2022/04/14 10:23:27;;;;;;;41.17;19.27;;;16.60;99.90;;;;;;5051826;28;20435;-74
2022/04/14 10:25:55;;;;;;;42.05;20.42;;;16.50;99.90;;;;;;5051367;28;20053;-76
2022/04/14 10:28:21;;;;;;;45.40;24.25;;;16.60;99.90;;;;;;5066780;28;20044;-74
2022/04/14 10:30:52;;;;;;;45.67;22.70;;;16.60;99.90;;;;;;5054559;28;20047;-71
2022/04/14 10:33:19;;;;;;;44.17;21.08;;;16.70;99.90;;;;;;5049392;28;20037;-73
2022/04/14 10:35:45;;;;;;;38.58;19.33;;;16.70;99.90;;;;;;5047230;28;20087;-75
2022/04/14 10:38:32;;;;;;;45.33;22.02;;;16.80;99.90;;;;;;5067236;28;20036;-70
2022/04/14 10:41:19;;;;;;;36.08;16.67;;;16.90;99.90;;;;;;5063429;28;20045;-73
2022/04/14 10:43:46;;;;;;;33.42;13.48;;;17.00;99.90;;;;;;5048762;28;20052;-72
2022/04/14 10:46:16;;;;;;;34.13;14.30;;;17.10;99.90;;;;;;5051692;28;20045;-74
2022/04/14 10:48:44;;;;;;;22.05;9.75;;;17.10;99.90;;;;;;5050611;28;20070;-70
2022/04/14 10:51:27;;;;;;;29.20;13.88;;;17.10;99.90;;;;;;5050882;28;20041;-71
2022/04/14 10:54:08;;;;;;;21.13;9.00;;;17.00;99.90;;;;;;5052694;28;20044;-71
2022/04/14 10:56:34;;;;;;;23.00;11.77;;;17.00;99.90;;;;;;5051633;28;20041;-72
2022/04/14 10:59:01;;;;;;;19.48;8.38;;;17.10;99.90;;;;;;5033217;28;20545;-71
2022/04/14 11:01:45;;;;;;;17.40;7.82;;;17.10;99.90;;;;;;5051345;28;20032;-72
2022/04/14 11:04:41;;;;;;;23.55;10.32;;;17.10;99.90;;;;;;5051467;28;20066;-69
2022/04/14 11:07:18;;;;;;;20.75;10.68;;;17.10;99.90;;;;;;5049357;28;20503;-70
2022/04/14 11:09:48;;;;;;;19.63;7.72;;;17.10;99.90;;;;;;5045497;28;20041;-75
2022/04/14 11:12:50;;;;;;;18.85;9.70;;;17.20;99.90;;;;;;5046173;28;20519;-72
2022/04/14 11:15:32;;;;;;;20.55;8.80;;;17.20;99.90;;;;;;5048037;28;20067;-73
2022/04/14 11:18:03;;;;;;;14.90;7.10;;;17.30;99.90;;;;;;5047764;28;20120;-71
2022/04/14 11:20:44;;;;;;;18.85;7.68;;;17.40;99.90;;;;;;5046106;28;20489;-73
2022/04/14 11:23:26;;;;;;;15.63;7.53;;;17.40;99.90;;;;;;5051836;28;20076;-77
2022/04/14 11:26:01;;;;;;;16.08;6.60;;;17.50;99.90;;;;;;5057130;28;20135;-73
2022/04/14 11:28:32;;;;;;;19.15;8.20;;;17.60;99.90;;;;;;5056420;28;20045;-73
2022/04/14 11:31:17;;;;;;;15.85;7.53;;;17.70;99.90;;;;;;5058883;28;20044;-76
2022/04/14 11:33:44;;;;;;;19.92;9.70;;;17.70;99.90;;;;;;5055217;28;20139;-72
2022/04/14 11:36:16;;;;;;;30.02;12.65;;;17.80;99.90;;;;;;5048943;28;20060;-71
2022/04/14 11:39:00;;;;;;;26.13;11.32;;;17.80;99.90;;;;;;5033414;28;20068;-70
2022/04/14 11:41:42;;;;;;;27.17;11.25;;;17.70;99.90;;;;;;5049355;28;20472;-69
2022/04/14 11:44:30;;;;;;;31.13;14.07;;;17.50;99.90;;;;;;5042744;28;20044;-68
2022/04/14 11:47:01;;;;;;;24.38;9.35;;;17.20;99.90;;;;;;5045096;28;20040;-72
2022/04/14 11:49:28;;;;;;;22.77;9.57;;;16.90;99.90;;;;;;5045689;28;20041;-69
2022/04/14 11:51:55;;;;;;;16.45;7.43;;;16.60;99.90;;;;;;5047339;28;20044;-69
2022/04/14 11:54:21;;;;;;;22.00;9.00;;;16.60;99.90;;;;;;5054926;28;20087;-68
2022/04/14 11:56:58;;;;;;;18.73;7.75;;;16.50;99.90;;;;;;5059487;28;20053;-70
2022/04/14 11:59:32;;;;;;;18.42;8.60;;;16.60;99.90;;;;;;5047819;28;20087;-70
2022/04/14 12:02:07;;;;;;;19.13;8.02;;;16.80;99.90;;;;;;5031598;28;20040;-70
2022/04/14 12:04:53;;;;;;;17.02;8.23;;;16.90;99.90;;;;;;5047751;28;20037;-68
2022/04/14 12:07:21;;;;;;;17.88;7.47;;;16.90;99.90;;;;;;5051801;28;20492;-67
2022/04/14 12:09:56;;;;;;;20.02;8.25;;;16.90;99.90;;;;;;5031949;28;20041;-68
2022/04/14 12:12:22;;;;;;;21.73;9.77;;;16.90;99.90;;;;;;5040769;28;20072;-69
2022/04/14 12:14:50;;;;;;;16.48;7.93;;;16.80;99.90;;;;;;5055135;28;20079;-68
2022/04/14 12:17:17;;;;;;;15.90;6.28;;;16.60;99.90;;;;;;5052105;28;20044;-68
2022/04/14 12:19:51;;;;;;;16.60;6.70;;;16.70;99.90;;;;;;5048207;28;20041;-70
2022/04/14 12:22:17;;;;;;;11.15;4.80;;;16.80;99.90;;;;;;5055478;28;20158;-71
2022/04/14 12:24:48;;;;;;;10.45;4.80;;;16.80;99.90;;;;;;5047936;28;20029;-68
2022/04/14 12:27:22;;;;;;;14.15;5.82;;;16.90;99.90;;;;;;5055129;28;20606;-69
2022/04/14 12:29:52;;;;;;;11.70;4.88;;;17.00;99.90;;;;;;5048778;28;20271;-71
2022/04/14 12:32:18;;;;;;;11.02;4.85;;;17.10;99.90;;;;;;5039857;28;20068;-68
2022/04/14 12:34:45;;;;;;;13.32;5.47;;;17.20;99.90;;;;;;5021333;28;20037;-71